createdAt,value
2023-01-11T00:44:05.161Z,64.90
2023-01-11T01:03:14.485Z,79.50
2023-01-11T01:27:14.564Z,79.20
2023-01-11T01:30:52.874Z,84.40
2023-01-11T01:34:44.765Z,80.90
2023-01-11T01:41:51.809Z,70.60
2023-01-11T01:45:51.750Z,75.10
2023-01-11T01:56:56.797Z,75.30
2023-01-11T02:04:37.838Z,73.80
2023-01-11T02:08:27.528Z,67.70
2023-01-11T02:12:03.824Z,70.30
2023-01-11T02:15:34.763Z,73.40
2023-01-11T02:19:02.832Z,74.70
2023-01-11T02:23:12.804Z,75.70
2023-01-11T02:38:06.767Z,70.60
2023-01-11T02:56:27.835Z,81.00
2023-01-11T03:12:32.886Z,84.20
2023-01-11T03:37:49.752Z,84.40
2023-01-11T03:59:33.731Z,79.10
2023-01-11T04:02:43.539Z,86.10
2023-01-11T04:05:12.061Z,84.50
2023-01-11T04:07:40.512Z,87.50
2023-01-11T04:10:09.616Z,88.70
2023-01-11T04:12:37.778Z,80.80
2023-01-11T04:15:06.953Z,88.00
2023-01-11T04:17:35.439Z,82.30
2023-01-11T04:20:03.675Z,82.90
2023-01-11T04:22:32.116Z,86.80
2023-01-11T04:25:00.369Z,81.60
2023-01-11T04:27:28.573Z,84.80
2023-01-11T04:29:56.938Z,103.60
2023-01-11T04:32:25.536Z,105.60
2023-01-11T04:34:53.877Z,107.70
2023-01-11T04:37:22.094Z,115.90
2023-01-11T04:39:50.457Z,99.30
2023-01-11T04:42:18.808Z,101.00
2023-01-11T04:44:49.241Z,96.60
2023-01-11T04:47:19.367Z,95.80
2023-01-11T04:49:47.986Z,89.80
2023-01-11T04:52:18.856Z,94.60
2023-01-11T04:54:48.840Z,99.70
2023-01-11T04:57:17.755Z,94.60
2023-01-11T04:59:48.984Z,96.50
2023-01-11T05:02:17.352Z,94.30
2023-01-11T05:04:45.775Z,92.90
2023-01-11T05:07:14.127Z,92.30
2023-01-11T05:09:42.591Z,90.70
2023-01-11T05:12:11.001Z,85.00
2023-01-11T05:14:39.422Z,89.90
2023-01-11T05:17:07.887Z,88.70
2023-01-11T05:19:36.145Z,79.40
2023-01-11T05:22:04.501Z,82.00
2023-01-11T05:24:32.716Z,67.90
2023-01-11T05:27:00.957Z,76.10
2023-01-11T05:29:29.553Z,70.80
2023-01-11T05:31:57.725Z,65.00
2023-01-11T05:34:25.925Z,70.60
2023-01-11T05:36:54.310Z,59.90
2023-01-11T05:39:23.923Z,60.80
2023-01-11T05:41:52.499Z,67.90
2023-01-11T05:44:39.294Z,60.10
2023-01-11T05:47:07.712Z,76.50
2023-01-11T05:49:40.949Z,77.10
2023-01-11T05:52:10.134Z,70.30
2023-01-11T05:54:38.590Z,63.00
2023-01-11T05:57:11.645Z,64.60
2023-01-11T05:59:42.420Z,62.10
2023-01-11T06:05:49.694Z,58.70
2023-01-11T06:08:20.626Z,57.60
2023-01-11T06:29:03.470Z,64.90
2023-01-11T06:41:21.540Z,48.00
2023-01-11T06:59:12.471Z,49.40
2023-01-11T07:01:59.792Z,50.70
2023-01-11T07:04:29.839Z,51.30
2023-01-11T07:07:09.557Z,50.50
2023-01-11T07:09:51.518Z,50.90
2023-01-11T07:12:40.231Z,53.60
2023-01-11T07:15:12.286Z,58.90
2023-01-11T07:17:41.527Z,60.40
2023-01-11T07:20:30.658Z,65.70
2023-01-11T07:27:05.610Z,82.30
2023-01-11T07:29:38.512Z,69.90
2023-01-11T07:32:08.351Z,73.20
2023-01-11T07:34:36.899Z,73.10
2023-01-11T07:37:28.537Z,66.50
2023-01-11T07:39:57.697Z,73.10
2023-01-11T07:42:44.982Z,74.00
2023-01-11T07:45:13.560Z,67.40
2023-01-11T07:47:41.993Z,71.90
2023-01-11T07:50:10.630Z,72.90
2023-01-11T07:52:39.227Z,71.50
2023-01-11T07:55:08.407Z,69.40
2023-01-11T07:57:36.865Z,68.50
2023-01-11T08:00:05.921Z,75.20
2023-01-11T08:02:40.052Z,75.00
2023-01-11T08:05:09.137Z,80.80
2023-01-11T08:07:37.573Z,90.40
2023-01-11T08:10:09.406Z,93.10
2023-01-11T08:13:08.221Z,85.30
2023-01-11T08:15:36.848Z,78.80
2023-01-11T08:18:06.508Z,73.00
2023-01-11T08:20:34.936Z,76.30
2023-01-11T08:23:10.833Z,72.20
2023-01-11T08:25:39.661Z,75.10
2023-01-11T08:28:08.284Z,74.40
2023-01-11T08:30:37.847Z,73.90
2023-01-11T08:33:06.070Z,76.60
2023-01-11T08:35:39.088Z,78.80
2023-01-11T08:38:08.286Z,79.60
2023-01-11T08:40:36.923Z,85.50
2023-01-11T08:43:05.557Z,82.10
2023-01-11T08:45:34.250Z,73.20
2023-01-11T08:48:02.668Z,76.20
2023-01-11T08:50:31.176Z,69.40
2023-01-11T08:52:59.642Z,59.90
2023-01-11T08:55:28.106Z,59.30
2023-01-11T08:57:57.574Z,60.00
2023-01-11T09:00:25.853Z,61.20
2023-01-11T09:02:54.336Z,61.30
2023-01-11T09:05:24.889Z,64.20
2023-01-11T09:07:56.609Z,93.30
2023-01-11T09:10:27.664Z,88.00
2023-01-11T09:12:56.971Z,93.50
2023-01-11T09:15:25.442Z,85.60
2023-01-11T09:17:54.250Z,60.30
2023-01-11T09:20:24.343Z,63.40
2023-01-11T09:22:56.185Z,59.90
2023-01-11T09:25:24.693Z,60.10
2023-01-11T09:27:53.026Z,56.50
2023-01-11T09:30:23.193Z,56.90
2023-01-11T09:32:52.619Z,51.20
2023-01-11T09:35:22.136Z,58.40
2023-01-11T09:37:54.027Z,56.30
2023-01-11T09:40:26.950Z,57.90
2023-01-11T09:43:01.006Z,56.20
2023-01-11T09:45:34.575Z,55.60
2023-01-11T09:48:26.733Z,41.50
2023-01-11T09:50:55.676Z,47.50
2023-01-11T09:53:32.627Z,49.90
2023-01-11T09:56:03.907Z,50.90
2023-01-11T09:58:51.028Z,41.90
2023-01-11T10:01:31.168Z,48.10
2023-01-11T10:04:08.627Z,40.60
2023-01-11T10:06:56.016Z,36.70
2023-01-11T10:18:22.340Z,42.30
2023-01-11T10:19:19.523Z,38.20
2023-01-11T10:21:50.776Z,26.40
2023-01-11T10:24:35.310Z,26.10
2023-01-11T10:27:14.921Z,29.60
2023-01-11T10:30:04.687Z,29.30
2023-01-11T10:33:02.186Z,32.40
2023-01-11T10:35:45.047Z,34.40
2023-01-11T10:41:34.220Z,29.20
2023-01-11T10:44:12.563Z,28.70
2023-01-11T10:46:46.360Z,29.20
2023-01-11T10:49:48.124Z,29.20
2023-01-11T10:52:28.403Z,28.00
2023-01-11T10:54:59.004Z,31.80
2023-01-11T10:58:00.271Z,25.80
2023-01-11T11:01:05.004Z,23.30
2023-01-11T11:03:36.187Z,20.60
2023-01-11T11:06:28.130Z,21.20
2023-01-11T11:09:13.393Z,22.80
2023-01-11T11:11:53.051Z,22.00
2023-01-11T11:14:38.896Z,21.00
2023-01-11T11:17:28.226Z,23.30
2023-01-11T11:19:57.735Z,22.90
2023-01-11T11:22:25.852Z,23.10
2023-01-11T11:25:01.512Z,27.10
2023-01-11T11:27:41.523Z,22.20
2023-01-11T11:30:13.977Z,21.80
2023-01-11T11:32:54.854Z,18.30
2023-01-11T11:35:42.525Z,24.00
2023-01-11T11:38:25.742Z,26.00
2023-01-11T11:41:03.794Z,21.20
2023-01-11T11:43:34.646Z,22.60
2023-01-11T11:46:08.292Z,21.50
2023-01-11T11:48:36.574Z,23.60
2023-01-11T11:51:10.063Z,22.20
2023-01-11T11:53:53.364Z,19.20
2023-01-11T11:56:35.413Z,16.70
2023-01-11T11:59:35.851Z,10.60
2023-01-11T12:02:16.846Z,16.60
2023-01-11T12:04:48.531Z,14.00
2023-01-11T12:07:49.788Z,13.40
2023-01-11T12:10:25.115Z,11.10
2023-01-11T12:13:00.194Z,12.90
2023-01-11T12:15:31.993Z,17.50
2023-01-11T12:18:40.628Z,17.40
2023-01-11T12:21:17.291Z,16.20
2023-01-11T12:23:45.695Z,14.30
2023-01-11T12:26:24.806Z,27.30
2023-01-11T12:28:59.331Z,9.80
2023-01-11T12:31:48.777Z,13.70
2023-01-11T12:34:32.133Z,13.80
2023-01-11T12:37:26.458Z,16.80
2023-01-11T12:40:39.679Z,15.00
2023-01-11T12:43:45.581Z,12.80
2023-01-11T12:46:29.149Z,15.80
2023-01-11T12:49:00.051Z,13.10
2023-01-11T12:51:37.476Z,13.10
2023-01-11T12:54:17.432Z,9.10
2023-01-11T12:56:51.491Z,11.80
2023-01-11T12:59:39.076Z,9.10
2023-01-11T13:02:25.594Z,12.10
2023-01-11T13:05:18.053Z,13.30
2023-01-11T13:40:25.752Z,15.10
2023-01-11T13:43:32.111Z,11.40
2023-01-11T13:46:15.200Z,12.40
2023-01-11T13:49:04.543Z,15.80
2023-01-11T13:51:47.573Z,14.30
2023-01-11T13:56:58.713Z,16.50
2023-01-11T13:59:25.828Z,21.60
2023-01-11T14:02:02.140Z,19.60
2023-01-11T14:04:51.651Z,22.30
2023-01-11T14:07:35.868Z,23.10
2023-01-11T14:10:36.667Z,25.90
2023-01-11T14:13:38.500Z,26.90
2023-01-11T14:16:33.010Z,30.70
2023-01-11T14:19:11.966Z,28.60
2023-01-11T14:21:49.298Z,27.50
2023-01-11T14:24:17.835Z,32.00
2023-01-11T14:27:32.716Z,36.20
2023-01-11T15:37:58.239Z,44.40
2023-01-11T15:40:30.047Z,50.20
2023-01-11T15:43:16.968Z,44.10
2023-01-11T15:46:36.800Z,52.10
2023-01-11T15:49:45.423Z,45.60
2023-01-11T15:52:36.878Z,55.40
2023-01-11T15:55:25.552Z,56.60
2023-01-11T15:58:04.249Z,64.40
2023-01-11T16:12:06.043Z,50.80
2023-01-11T16:14:42.470Z,53.10
2023-01-11T16:20:33.315Z,54.70
2023-01-11T16:38:03.285Z,52.30
2023-01-11T19:10:10.177Z,48.20
2023-01-11T19:12:41.824Z,42.30
2023-01-11T19:35:53.192Z,47.00
2023-01-11T19:38:29.542Z,45.10
2023-01-11T19:41:08.083Z,43.90
2023-01-11T19:43:35.508Z,41.60
2023-01-11T19:46:03.322Z,45.50
2023-01-11T19:48:34.226Z,38.40
2023-01-11T19:51:08.923Z,41.40
2023-01-11T19:53:42.776Z,39.70
2023-01-11T19:56:15.054Z,42.70
2023-01-11T19:58:46.973Z,45.60
2023-01-11T20:24:10.790Z,42.10
2023-01-11T20:26:41.705Z,40.30
2023-01-11T20:29:29.257Z,42.40
2023-01-11T20:31:58.217Z,43.30
2023-01-11T20:34:41.364Z,44.80
2023-01-11T20:50:55.442Z,38.50
2023-01-11T20:56:35.932Z,40.60
2023-01-11T20:59:27.681Z,35.60
2023-01-11T21:02:23.258Z,40.60
2023-01-11T21:11:54.289Z,41.40
2023-01-11T21:14:36.185Z,40.10
2023-01-11T21:31:50.525Z,38.40
2023-01-11T21:34:25.435Z,32.90
